Terminal Aerodrome Forecast
Issued by NWS

Home | Current Version | Previous Version | Text Only | Print | Product List | Glossary On
Versions: 1 2 3 4 5 6 7 8 9 10 11 12 13 14 15 16 17 18 19 20 21
000
FTPA31 PHFO 021100
TAFJRF
TAF
PHJR 021137Z 0212/0312 VRB03KT P6SM FEW040
     FM022000 13008KT P6SM VCSH SCT025 BKN050
     FM030400 VRB03KT P6SM FEW040=

USA.gov is the U.S. government's official web portal to all federal, state and local government web resources and services.